sensor_id;sensor_type;location;lat;lon;timestamp;temperature;humidity
1468;DHT22;727;48.892;9.544;2023-05-08T00:02:07;14.10;99.90
1468;DHT22;727;48.892;9.544;2023-05-08T00:04:34;14.10;99.90
1468;DHT22;727;48.892;9.544;2023-05-08T00:07:00;14.10;99.90
1468;DHT22;727;48.892;9.544;2023-05-08T00:09:27;14.10;99.90
1468;DHT22;727;48.892;9.544;2023-05-08T00:11:54;14.10;99.90
1468;DHT22;727;48.892;9.544;2023-05-08T00:14:20;14.10;99.90
1468;DHT22;727;48.892;9.544;2023-05-08T00:16:47;14.10;99.90
1468;DHT22;727;48.892;9.544;2023-05-08T00:19:15;14.00;99.90
1468;DHT22;727;48.892;9.544;2023-05-08T00:21:42;14.00;99.90
1468;DHT22;727;48.892;9.544;2023-05-08T00:24:08;14.00;99.90
1468;DHT22;727;48.892;9.544;2023-05-08T00:26:35;14.00;99.90
1468;DHT22;727;48.892;9.544;2023-05-08T00:29:02;14.00;99.90
1468;DHT22;727;48.892;9.544;2023-05-08T00:31:29;14.00;99.90
1468;DHT22;727;48.892;9.544;2023-05-08T00:33:56;14.00;99.90
1468;DHT22;727;48.892;9.544;2023-05-08T00:36:24;14.00;99.90
1468;DHT22;727;48.892;9.544;2023-05-08T00:38:52;14.00;99.90
1468;DHT22;727;48.892;9.544;2023-05-08T00:41:18;14.00;99.90
1468;DHT22;727;48.892;9.544;2023-05-08T00:43:45;14.00;99.90
1468;DHT22;727;48.892;9.544;2023-05-08T00:46:12;14.00;99.90
1468;DHT22;727;48.892;9.544;2023-05-08T00:48:39;14.00;99.90
1468;DHT22;727;48.892;9.544;2023-05-08T00:51:07;14.00;99.90
1468;DHT22;727;48.892;9.544;2023-05-08T00:53:38;14.00;99.90
1468;DHT22;727;48.892;9.544;2023-05-08T00:56:09;14.00;99.90
1468;DHT22;727;48.892;9.544;2023-05-08T00:58:36;14.00;99.90
1468;DHT22;727;48.892;9.544;2023-05-08T01:01:12;14.00;99.90
1468;DHT22;727;48.892;9.544;2023-05-08T01:03:42;13.90;99.90
1468;DHT22;727;48.892;9.544;2023-05-08T01:06:15;13.90;99.90
1468;DHT22;727;48.892;9.544;2023-05-08T01:08:48;13.90;99.90
1468;DHT22;727;48.892;9.544;2023-05-08T01:11:20;13.90;99.90
1468;DHT22;727;48.892;9.544;2023-05-08T01:14:06;13.90;99.90
1468;DHT22;727;48.892;9.544;2023-05-08T01:16:38;13.90;99.90
1468;DHT22;727;48.892;9.544;2023-05-08T01:26:10;13.90;99.90
1468;DHT22;727;48.892;9.544;2023-05-08T01:29:28;13.90;99.90
1468;DHT22;727;48.892;9.544;2023-05-08T01:32:18;14.00;99.90
1468;DHT22;727;48.892;9.544;2023-05-08T01:34:59;13.90;99.90
1468;DHT22;727;48.892;9.544;2023-05-08T01:37:49;13.90;99.90
1468;DHT22;727;48.892;9.544;2023-05-08T01:40:34;13.90;99.90
1468;DHT22;727;48.892;9.544;2023-05-08T01:43:10;13.90;99.90
1468;DHT22;727;48.892;9.544;2023-05-08T01:45:40;13.90;99.90
1468;DHT22;727;48.892;9.544;2023-05-08T01:48:13;13.90;99.90
1468;DHT22;727;48.892;9.544;2023-05-08T01:50:45;13.90;99.90
1468;DHT22;727;48.892;9.544;2023-05-08T01:53:18;13.90;99.90
1468;DHT22;727;48.892;9.544;2023-05-08T01:55:48;13.90;99.90
1468;DHT22;727;48.892;9.544;2023-05-08T01:58:16;13.90;99.90
1468;DHT22;727;48.892;9.544;2023-05-08T02:00:44;13.90;99.90
1468;DHT22;727;48.892;9.544;2023-05-08T02:03:15;13.90;99.90
1468;DHT22;727;48.892;9.544;2023-05-08T02:05:43;13.90;99.90
1468;DHT22;727;48.892;9.544;2023-05-08T02:08:11;13.90;99.90
1468;DHT22;727;48.892;9.544;2023-05-08T02:10:40;13.90;99.90
1468;DHT22;727;48.892;9.544;2023-05-08T02:13:09;13.90;99.90
1468;DHT22;727;48.892;9.544;2023-05-08T02:15:37;13.90;99.90
1468;DHT22;727;48.892;9.544;2023-05-08T02:18:07;13.90;99.90
1468;DHT22;727;48.892;9.544;2023-05-08T02:20:36;13.90;99.90
1468;DHT22;727;48.892;9.544;2023-05-08T02:23:03;14.00;99.90
1468;DHT22;727;48.892;9.544;2023-05-08T02:25:31;13.90;99.90
1468;DHT22;727;48.892;9.544;2023-05-08T02:27:58;14.00;99.90
1468;DHT22;727;48.892;9.544;2023-05-08T02:30:26;13.90;99.90
1468;DHT22;727;48.892;9.544;2023-05-08T02:32:55;13.90;99.90
1468;DHT22;727;48.892;9.544;2023-05-08T02:35:23;13.90;99.90
1468;DHT22;727;48.892;9.544;2023-05-08T02:37:54;14.00;99.90
1468;DHT22;727;48.892;9.544;2023-05-08T02:40:23;13.90;99.90
1468;DHT22;727;48.892;9.544;2023-05-08T02:42:51;14.00;99.90
1468;DHT22;727;48.892;9.544;2023-05-08T02:45:19;14.00;99.90
1468;DHT22;727;48.892;9.544;2023-05-08T02:47:50;13.90;99.90
1468;DHT22;727;48.892;9.544;2023-05-08T02:50:20;14.00;99.90
1468;DHT22;727;48.892;9.544;2023-05-08T02:52:53;14.00;99.90
1468;DHT22;727;48.892;9.544;2023-05-08T02:55:32;13.90;99.90
1468;DHT22;727;48.892;9.544;2023-05-08T02:58:09;13.90;99.90
1468;DHT22;727;48.892;9.544;2023-05-08T03:00:43;13.90;99.90
1468;DHT22;727;48.892;9.544;2023-05-08T03:03:16;13.90;99.90
1468;DHT22;727;48.892;9.544;2023-05-08T03:05:48;13.90;99.90
1468;DHT22;727;48.892;9.544;2023-05-08T03:08:23;13.90;99.90
1468;DHT22;727;48.892;9.544;2023-05-08T03:10:54;13.90;99.90
1468;DHT22;727;48.892;9.544;2023-05-08T03:13:22;13.80;99.90
1468;DHT22;727;48.892;9.544;2023-05-08T03:15:53;13.90;99.90
1468;DHT22;727;48.892;9.544;2023-05-08T03:18:23;13.80;99.90
1468;DHT22;727;48.892;9.544;2023-05-08T03:20:54;13.80;99.90
1468;DHT22;727;48.892;9.544;2023-05-08T03:23:23;13.80;99.90
1468;DHT22;727;48.892;9.544;2023-05-08T03:25:51;13.80;99.90
1468;DHT22;727;48.892;9.544;2023-05-08T03:28:20;13.90;99.90
1468;DHT22;727;48.892;9.544;2023-05-08T03:30:48;13.90;99.90
1468;DHT22;727;48.892;9.544;2023-05-08T03:33:17;13.90;99.90
1468;DHT22;727;48.892;9.544;2023-05-08T03:35:44;13.90;99.90
1468;DHT22;727;48.892;9.544;2023-05-08T03:38:11;13.90;99.90
1468;DHT22;727;48.892;9.544;2023-05-08T03:40:40;13.80;99.90
1468;DHT22;727;48.892;9.544;2023-05-08T03:43:08;13.80;99.90
1468;DHT22;727;48.892;9.544;2023-05-08T03:45:36;13.80;99.90
1468;DHT22;727;48.892;9.544;2023-05-08T03:48:04;13.80;99.90
1468;DHT22;727;48.892;9.544;2023-05-08T03:50:33;13.80;99.90
1468;DHT22;727;48.892;9.544;2023-05-08T03:53:00;13.80;99.90
1468;DHT22;727;48.892;9.544;2023-05-08T03:55:27;13.70;99.90
1468;DHT22;727;48.892;9.544;2023-05-08T03:58:00;13.70;99.90
1468;DHT22;727;48.892;9.544;2023-05-08T04:00:40;13.70;99.90
1468;DHT22;727;48.892;9.544;2023-05-08T04:03:17;13.70;99.90
1468;DHT22;727;48.892;9.544;2023-05-08T04:05:52;13.70;99.90
1468;DHT22;727;48.892;9.544;2023-05-08T04:08:27;13.70;99.90
1468;DHT22;727;48.892;9.544;2023-05-08T04:11:07;13.70;99.90
1468;DHT22;727;48.892;9.544;2023-05-08T04:13:44;13.70;99.90
1468;DHT22;727;48.892;9.544;2023-05-08T04:16:19;13.70;99.90
1468;DHT22;727;48.892;9.544;2023-05-08T04:18:48;13.70;99.90
1468;DHT22;727;48.892;9.544;2023-05-08T04:21:19;13.70;99.90
1468;DHT22;727;48.892;9.544;2023-05-08T04:23:49;13.80;99.90
1468;DHT22;727;48.892;9.544;2023-05-08T04:26:17;13.70;99.90
1468;DHT22;727;48.892;9.544;2023-05-08T04:28:45;13.70;99.90
1468;DHT22;727;48.892;9.544;2023-05-08T04:31:13;13.70;99.90
1468;DHT22;727;48.892;9.544;2023-05-08T04:33:42;13.70;99.90
1468;DHT22;727;48.892;9.544;2023-05-08T04:36:10;13.70;99.90
1468;DHT22;727;48.892;9.544;2023-05-08T04:38:37;13.70;99.90
1468;DHT22;727;48.892;9.544;2023-05-08T04:41:04;13.80;99.90
1468;DHT22;727;48.892;9.544;2023-05-08T04:43:31;13.80;99.90
1468;DHT22;727;48.892;9.544;2023-05-08T04:45:59;13.80;99.90
1468;DHT22;727;48.892;9.544;2023-05-08T04:48:25;13.80;99.90
1468;DHT22;727;48.892;9.544;2023-05-08T04:50:52;13.90;99.90
1468;DHT22;727;48.892;9.544;2023-05-08T04:53:19;13.90;99.90
1468;DHT22;727;48.892;9.544;2023-05-08T04:55:46;13.90;99.90
1468;DHT22;727;48.892;9.544;2023-05-08T04:58:12;14.00;99.90
1468;DHT22;727;48.892;9.544;2023-05-08T05:00:39;14.00;99.90
1468;DHT22;727;48.892;9.544;2023-05-08T05:03:07;14.00;99.90
1468;DHT22;727;48.892;9.544;2023-05-08T05:05:34;14.10;99.90
1468;DHT22;727;48.892;9.544;2023-05-08T05:08:01;14.10;99.90
1468;DHT22;727;48.892;9.544;2023-05-08T05:10:29;14.10;99.90
1468;DHT22;727;48.892;9.544;2023-05-08T05:12:55;14.20;99.90
1468;DHT22;727;48.892;9.544;2023-05-08T05:15:22;14.30;99.90
1468;DHT22;727;48.892;9.544;2023-05-08T05:17:49;14.30;99.90
1468;DHT22;727;48.892;9.544;2023-05-08T05:20:17;14.40;99.90
1468;DHT22;727;48.892;9.544;2023-05-08T05:22:44;14.40;99.90
1468;DHT22;727;48.892;9.544;2023-05-08T05:25:11;14.50;99.90
1468;DHT22;727;48.892;9.544;2023-05-08T05:27:38;14.50;99.90
1468;DHT22;727;48.892;9.544;2023-05-08T05:30:06;14.50;99.90
1468;DHT22;727;48.892;9.544;2023-05-08T05:32:32;14.60;99.90
1468;DHT22;727;48.892;9.544;2023-05-08T05:34:59;14.60;99.90
1468;DHT22;727;48.892;9.544;2023-05-08T05:37:27;14.60;99.90
1468;DHT22;727;48.892;9.544;2023-05-08T05:39:54;14.60;99.90
1468;DHT22;727;48.892;9.544;2023-05-08T05:42:20;14.60;99.90
1468;DHT22;727;48.892;9.544;2023-05-08T05:44:47;14.70;99.90
1468;DHT22;727;48.892;9.544;2023-05-08T05:47:14;14.60;99.90
1468;DHT22;727;48.892;9.544;2023-05-08T05:49:41;14.70;99.90
1468;DHT22;727;48.892;9.544;2023-05-08T05:52:11;14.80;99.90
1468;DHT22;727;48.892;9.544;2023-05-08T05:54:39;14.80;99.90
1468;DHT22;727;48.892;9.544;2023-05-08T05:57:07;14.80;99.90
1468;DHT22;727;48.892;9.544;2023-05-08T05:59:33;14.90;99.90
1468;DHT22;727;48.892;9.544;2023-05-08T06:02:00;14.90;99.90
1468;DHT22;727;48.892;9.544;2023-05-08T06:04:27;15.00;99.90
1468;DHT22;727;48.892;9.544;2023-05-08T06:06:54;15.00;99.90
1468;DHT22;727;48.892;9.544;2023-05-08T06:09:21;15.10;99.90
1468;DHT22;727;48.892;9.544;2023-05-08T06:11:49;15.10;99.90
1468;DHT22;727;48.892;9.544;2023-05-08T06:14:15;15.20;99.90
1468;DHT22;727;48.892;9.544;2023-05-08T06:16:42;15.30;99.90
1468;DHT22;727;48.892;9.544;2023-05-08T06:19:09;15.40;99.90
1468;DHT22;727;48.892;9.544;2023-05-08T06:21:36;15.50;99.90
1468;DHT22;727;48.892;9.544;2023-05-08T06:24:04;15.50;99.90
1468;DHT22;727;48.892;9.544;2023-05-08T06:26:32;15.50;99.90
1468;DHT22;727;48.892;9.544;2023-05-08T06:29:00;15.70;99.90
1468;DHT22;727;48.892;9.544;2023-05-08T06:31:26;15.80;99.90
1468;DHT22;727;48.892;9.544;2023-05-08T06:33:53;15.90;99.90
1468;DHT22;727;48.892;9.544;2023-05-08T06:36:20;15.90;99.90
1468;DHT22;727;48.892;9.544;2023-05-08T06:38:46;16.00;99.90
1468;DHT22;727;48.892;9.544;2023-05-08T06:41:13;16.00;99.90
1468;DHT22;727;48.892;9.544;2023-05-08T06:43:40;16.10;99.90
1468;DHT22;727;48.892;9.544;2023-05-08T06:46:08;16.20;99.90
1468;DHT22;727;48.892;9.544;2023-05-08T06:48:35;16.20;99.90
1468;DHT22;727;48.892;9.544;2023-05-08T06:51:01;16.30;99.90
1468;DHT22;727;48.892;9.544;2023-05-08T06:53:29;16.30;99.90
1468;DHT22;727;48.892;9.544;2023-05-08T06:55:55;16.20;99.90
1468;DHT22;727;48.892;9.544;2023-05-08T06:58:23;16.20;99.90
1468;DHT22;727;48.892;9.544;2023-05-08T07:00:52;16.30;99.90
1468;DHT22;727;48.892;9.544;2023-05-08T07:03:20;16.40;99.90
1468;DHT22;727;48.892;9.544;2023-05-08T07:05:47;16.40;99.90
1468;DHT22;727;48.892;9.544;2023-05-08T07:08:13;16.40;99.90
1468;DHT22;727;48.892;9.544;2023-05-08T07:10:40;16.50;99.90
1468;DHT22;727;48.892;9.544;2023-05-08T07:13:07;16.60;99.90
1468;DHT22;727;48.892;9.544;2023-05-08T07:15:33;16.60;99.90
1468;DHT22;727;48.892;9.544;2023-05-08T07:18:00;16.60;99.90
1468;DHT22;727;48.892;9.544;2023-05-08T07:20:28;16.70;99.90
1468;DHT22;727;48.892;9.544;2023-05-08T07:22:55;16.70;99.90
1468;DHT22;727;48.892;9.544;2023-05-08T07:25:24;16.70;99.90
1468;DHT22;727;48.892;9.544;2023-05-08T07:27:51;16.70;99.90
1468;DHT22;727;48.892;9.544;2023-05-08T07:30:18;16.80;99.90
1468;DHT22;727;48.892;9.544;2023-05-08T07:32:45;16.80;99.90
1468;DHT22;727;48.892;9.544;2023-05-08T07:35:11;16.90;99.90
1468;DHT22;727;48.892;9.544;2023-05-08T07:37:40;16.80;99.90
1468;DHT22;727;48.892;9.544;2023-05-08T07:40:08;16.90;99.90
1468;DHT22;727;48.892;9.544;2023-05-08T07:42:38;16.80;99.90
1468;DHT22;727;48.892;9.544;2023-05-08T07:45:07;16.80;99.90
1468;DHT22;727;48.892;9.544;2023-05-08T07:47:34;16.90;99.90
1468;DHT22;727;48.892;9.544;2023-05-08T07:50:03;16.90;99.90
1468;DHT22;727;48.892;9.544;2023-05-08T07:52:30;16.80;99.90
1468;DHT22;727;48.892;9.544;2023-05-08T07:54:58;16.70;99.90
1468;DHT22;727;48.892;9.544;2023-05-08T07:57:25;16.80;99.90
1468;DHT22;727;48.892;9.544;2023-05-08T07:59:51;16.70;99.90
1468;DHT22;727;48.892;9.544;2023-05-08T08:02:18;16.80;99.90
1468;DHT22;727;48.892;9.544;2023-05-08T08:04:45;16.90;99.90
1468;DHT22;727;48.892;9.544;2023-05-08T08:07:11;16.90;99.90
1468;DHT22;727;48.892;9.544;2023-05-08T08:09:38;16.90;99.90
1468;DHT22;727;48.892;9.544;2023-05-08T08:12:06;17.00;99.90
1468;DHT22;727;48.892;9.544;2023-05-08T08:14:33;17.10;99.90
1468;DHT22;727;48.892;9.544;2023-05-08T08:17:00;17.30;99.90
1468;DHT22;727;48.892;9.544;2023-05-08T08:19:27;17.40;99.90
1468;DHT22;727;48.892;9.544;2023-05-08T08:21:53;17.50;99.90
1468;DHT22;727;48.892;9.544;2023-05-08T08:24:20;17.70;99.90
1468;DHT22;727;48.892;9.544;2023-05-08T08:26:48;17.70;99.90
1468;DHT22;727;48.892;9.544;2023-05-08T08:29:16;17.90;99.90
1468;DHT22;727;48.892;9.544;2023-05-08T08:31:43;18.10;99.90
1468;DHT22;727;48.892;9.544;2023-05-08T08:34:10;18.20;99.90
1468;DHT22;727;48.892;9.544;2023-05-08T08:36:37;18.20;99.90
1468;DHT22;727;48.892;9.544;2023-05-08T08:39:04;18.40;99.90
1468;DHT22;727;48.892;9.544;2023-05-08T08:41:31;18.50;99.90
1468;DHT22;727;48.892;9.544;2023-05-08T08:43:58;18.50;99.90
1468;DHT22;727;48.892;9.544;2023-05-08T08:46:27;18.60;99.90
1468;DHT22;727;48.892;9.544;2023-05-08T08:48:54;18.60;99.90
1468;DHT22;727;48.892;9.544;2023-05-08T08:51:26;18.60;99.90
1468;DHT22;727;48.892;9.544;2023-05-08T08:54:01;18.70;99.90
1468;DHT22;727;48.892;9.544;2023-05-08T08:56:29;18.80;99.90
1468;DHT22;727;48.892;9.544;2023-05-08T08:58:57;19.00;99.90
1468;DHT22;727;48.892;9.544;2023-05-08T09:01:27;19.10;99.90
1468;DHT22;727;48.892;9.544;2023-05-08T09:03:56;19.20;99.90
1468;DHT22;727;48.892;9.544;2023-05-08T09:06:23;19.30;99.90
1468;DHT22;727;48.892;9.544;2023-05-08T09:08:54;19.30;99.90
1468;DHT22;727;48.892;9.544;2023-05-08T09:11:22;19.10;99.90
1468;DHT22;727;48.892;9.544;2023-05-08T09:13:49;19.00;99.90
1468;DHT22;727;48.892;9.544;2023-05-08T09:16:16;18.90;99.90
1468;DHT22;727;48.892;9.544;2023-05-08T09:18:47;18.90;99.90
1468;DHT22;727;48.892;9.544;2023-05-08T09:21:14;18.90;99.90
1468;DHT22;727;48.892;9.544;2023-05-08T09:23:57;18.80;99.90
1468;DHT22;727;48.892;9.544;2023-05-08T09:26:28;18.80;99.90
1468;DHT22;727;48.892;9.544;2023-05-08T09:29:14;18.80;99.90
1468;DHT22;727;48.892;9.544;2023-05-08T09:31:43;18.80;99.90
1468;DHT22;727;48.892;9.544;2023-05-08T09:34:22;18.80;99.90
1468;DHT22;727;48.892;9.544;2023-05-08T09:36:49;18.80;99.90
1468;DHT22;727;48.892;9.544;2023-05-08T09:39:21;18.80;99.90
1468;DHT22;727;48.892;9.544;2023-05-08T09:41:56;18.90;99.90
1468;DHT22;727;48.892;9.544;2023-05-08T09:44:23;18.90;99.90
1468;DHT22;727;48.892;9.544;2023-05-08T09:46:50;19.00;99.90
1468;DHT22;727;48.892;9.544;2023-05-08T09:49:19;19.10;99.90
1468;DHT22;727;48.892;9.544;2023-05-08T09:51:51;19.30;99.90
1468;DHT22;727;48.892;9.544;2023-05-08T09:54:19;19.40;99.90
1468;DHT22;727;48.892;9.544;2023-05-08T09:56:46;19.50;99.90
1468;DHT22;727;48.892;9.544;2023-05-08T09:59:23;19.60;99.90
1468;DHT22;727;48.892;9.544;2023-05-08T10:01:50;19.60;99.90
1468;DHT22;727;48.892;9.544;2023-05-08T10:04:30;19.50;99.90
1468;DHT22;727;48.892;9.544;2023-05-08T10:06:57;19.50;99.90
1468;DHT22;727;48.892;9.544;2023-05-08T10:09:25;19.50;99.90
1468;DHT22;727;48.892;9.544;2023-05-08T10:11:53;19.50;99.90
1468;DHT22;727;48.892;9.544;2023-05-08T10:14:20;19.60;99.90
1468;DHT22;727;48.892;9.544;2023-05-08T10:16:49;19.60;99.90
1468;DHT22;727;48.892;9.544;2023-05-08T10:19:19;19.60;99.90
1468;DHT22;727;48.892;9.544;2023-05-08T10:21:48;19.80;99.90
1468;DHT22;727;48.892;9.544;2023-05-08T10:24:16;20.00;99.90
1468;DHT22;727;48.892;9.544;2023-05-08T10:26:47;20.00;99.90
1468;DHT22;727;48.892;9.544;2023-05-08T10:29:22;20.10;99.90
1468;DHT22;727;48.892;9.544;2023-05-08T10:31:53;20.00;99.90
1468;DHT22;727;48.892;9.544;2023-05-08T10:34:23;20.20;99.90
1468;DHT22;727;48.892;9.544;2023-05-08T10:36:52;20.20;99.90
1468;DHT22;727;48.892;9.544;2023-05-08T10:39:19;20.30;99.90
1468;DHT22;727;48.892;9.544;2023-05-08T10:41:48;20.40;99.90
1468;DHT22;727;48.892;9.544;2023-05-08T10:44:15;20.50;99.90
1468;DHT22;727;48.892;9.544;2023-05-08T10:46:48;20.60;99.90
1468;DHT22;727;48.892;9.544;2023-05-08T10:49:19;20.70;99.90
1468;DHT22;727;48.892;9.544;2023-05-08T10:51:57;20.90;99.90
1468;DHT22;727;48.892;9.544;2023-05-08T10:54:33;21.00;99.60
1468;DHT22;727;48.892;9.544;2023-05-08T10:57:09;21.00;99.00
1468;DHT22;727;48.892;9.544;2023-05-08T10:59:36;20.90;98.80
1468;DHT22;727;48.892;9.544;2023-05-08T11:02:04;20.90;98.90
1468;DHT22;727;48.892;9.544;2023-05-08T11:04:32;20.90;98.80
1468;DHT22;727;48.892;9.544;2023-05-08T11:07:00;20.90;99.40
1468;DHT22;727;48.892;9.544;2023-05-08T11:09:30;20.60;99.90
1468;DHT22;727;48.892;9.544;2023-05-08T11:12:22;20.50;99.80
1468;DHT22;727;48.892;9.544;2023-05-08T11:14:56;20.20;99.90
1468;DHT22;727;48.892;9.544;2023-05-08T11:17:25;20.00;99.90
1468;DHT22;727;48.892;9.544;2023-05-08T11:19:56;19.80;99.90
1468;DHT22;727;48.892;9.544;2023-05-08T11:22:36;19.70;99.90
1468;DHT22;727;48.892;9.544;2023-05-08T11:25:12;19.60;99.90
1468;DHT22;727;48.892;9.544;2023-05-08T11:28:09;19.60;99.90
1468;DHT22;727;48.892;9.544;2023-05-08T11:30:37;19.60;99.90
1468;DHT22;727;48.892;9.544;2023-05-08T11:33:22;19.70;99.90
1468;DHT22;727;48.892;9.544;2023-05-08T11:35:55;19.90;99.90
1468;DHT22;727;48.892;9.544;2023-05-08T11:38:32;19.90;99.90
1468;DHT22;727;48.892;9.544;2023-05-08T11:41:02;19.70;99.90
1468;DHT22;727;48.892;9.544;2023-05-08T11:43:50;19.70;99.90
1468;DHT22;727;48.892;9.544;2023-05-08T11:46:20;19.80;99.90
1468;DHT22;727;48.892;9.544;2023-05-08T11:48:47;19.80;99.90
1468;DHT22;727;48.892;9.544;2023-05-08T11:51:16;19.90;99.90
1468;DHT22;727;48.892;9.544;2023-05-08T11:53:44;20.00;99.90
1468;DHT22;727;48.892;9.544;2023-05-08T11:56:12;20.20;99.90
1468;DHT22;727;48.892;9.544;2023-05-08T11:58:38;20.20;99.90
1468;DHT22;727;48.892;9.544;2023-05-08T12:01:05;20.50;99.90
1468;DHT22;727;48.892;9.544;2023-05-08T12:03:32;20.60;99.90
1468;DHT22;727;48.892;9.544;2023-05-08T12:05:58;20.70;99.80
1468;DHT22;727;48.892;9.544;2023-05-08T12:08:25;20.70;99.50
1468;DHT22;727;48.892;9.544;2023-05-08T12:10:55;20.90;99.40
1468;DHT22;727;48.892;9.544;2023-05-08T12:13:23;21.00;98.80
1468;DHT22;727;48.892;9.544;2023-05-08T12:15:51;21.00;99.00
1468;DHT22;727;48.892;9.544;2023-05-08T12:18:19;21.20;98.70
1468;DHT22;727;48.892;9.544;2023-05-08T12:20:50;21.20;98.40
1468;DHT22;727;48.892;9.544;2023-05-08T12:23:17;21.20;98.00
1468;DHT22;727;48.892;9.544;2023-05-08T12:25:44;21.20;97.60
1468;DHT22;727;48.892;9.544;2023-05-08T12:28:12;21.10;97.00
1468;DHT22;727;48.892;9.544;2023-05-08T12:30:40;20.90;97.80
1468;DHT22;727;48.892;9.544;2023-05-08T12:33:07;20.90;97.50
1468;DHT22;727;48.892;9.544;2023-05-08T12:35:34;20.90;97.00
1468;DHT22;727;48.892;9.544;2023-05-08T12:38:02;20.80;97.40
1468;DHT22;727;48.892;9.544;2023-05-08T12:40:30;20.90;97.30
1468;DHT22;727;48.892;9.544;2023-05-08T12:42:59;21.10;97.10
1468;DHT22;727;48.892;9.544;2023-05-08T12:45:30;21.40;97.00
1468;DHT22;727;48.892;9.544;2023-05-08T12:48:00;21.40;96.80
1468;DHT22;727;48.892;9.544;2023-05-08T12:50:27;21.30;96.30
1468;DHT22;727;48.892;9.544;2023-05-08T12:53:01;21.00;96.70
1468;DHT22;727;48.892;9.544;2023-05-08T12:55:30;20.60;97.20
1468;DHT22;727;48.892;9.544;2023-05-08T12:58:01;20.80;97.80
1468;DHT22;727;48.892;9.544;2023-05-08T13:00:38;20.80;97.50
1468;DHT22;727;48.892;9.544;2023-05-08T13:03:06;20.90;97.50
1468;DHT22;727;48.892;9.544;2023-05-08T13:05:34;21.00;97.50
1468;DHT22;727;48.892;9.544;2023-05-08T13:08:02;21.10;96.70
1468;DHT22;727;48.892;9.544;2023-05-08T13:10:45;21.30;96.50
1468;DHT22;727;48.892;9.544;2023-05-08T13:13:13;21.40;96.60
1468;DHT22;727;48.892;9.544;2023-05-08T13:15:41;21.20;96.30
1468;DHT22;727;48.892;9.544;2023-05-08T13:18:08;21.20;96.50
1468;DHT22;727;48.892;9.544;2023-05-08T13:20:36;21.40;95.90
1468;DHT22;727;48.892;9.544;2023-05-08T13:23:04;21.60;95.40
1468;DHT22;727;48.892;9.544;2023-05-08T13:25:31;21.70;95.20
1468;DHT22;727;48.892;9.544;2023-05-08T13:27:58;21.70;95.00
1468;DHT22;727;48.892;9.544;2023-05-08T13:30:25;21.70;94.90
1468;DHT22;727;48.892;9.544;2023-05-08T13:32:54;21.80;94.80
1468;DHT22;727;48.892;9.544;2023-05-08T13:35:21;21.80;94.60
1468;DHT22;727;48.892;9.544;2023-05-08T13:37:49;21.80;94.30
1468;DHT22;727;48.892;9.544;2023-05-08T13:40:17;21.80;94.30
1468;DHT22;727;48.892;9.544;2023-05-08T13:42:43;22.20;94.00
1468;DHT22;727;48.892;9.544;2023-05-08T13:45:11;22.80;93.20
1468;DHT22;727;48.892;9.544;2023-05-08T13:47:39;22.70;92.80
1468;DHT22;727;48.892;9.544;2023-05-08T13:50:08;22.70;92.10
1468;DHT22;727;48.892;9.544;2023-05-08T13:52:37;22.90;92.50
1468;DHT22;727;48.892;9.544;2023-05-08T13:55:05;22.50;92.30
1468;DHT22;727;48.892;9.544;2023-05-08T13:57:32;22.40;93.20
1468;DHT22;727;48.892;9.544;2023-05-08T13:59:59;22.80;92.60
1468;DHT22;727;48.892;9.544;2023-05-08T14:02:26;23.00;92.20
1468;DHT22;727;48.892;9.544;2023-05-08T14:04:52;22.80;91.90
1468;DHT22;727;48.892;9.544;2023-05-08T14:07:21;22.50;92.00
1468;DHT22;727;48.892;9.544;2023-05-08T14:09:47;22.20;92.60
1468;DHT22;727;48.892;9.544;2023-05-08T14:12:14;21.90;92.90
1468;DHT22;727;48.892;9.544;2023-05-08T14:14:41;21.80;93.20
1468;DHT22;727;48.892;9.544;2023-05-08T14:17:08;21.50;93.70
1468;DHT22;727;48.892;9.544;2023-05-08T14:19:35;21.50;94.10
1468;DHT22;727;48.892;9.544;2023-05-08T14:22:01;21.40;94.10
1468;DHT22;727;48.892;9.544;2023-05-08T14:24:30;21.30;94.20
1468;DHT22;727;48.892;9.544;2023-05-08T14:26:57;21.10;94.20
1468;DHT22;727;48.892;9.544;2023-05-08T14:29:26;20.90;94.60
1468;DHT22;727;48.892;9.544;2023-05-08T14:31:53;20.80;94.50
1468;DHT22;727;48.892;9.544;2023-05-08T14:34:19;20.70;94.50
1468;DHT22;727;48.892;9.544;2023-05-08T14:36:46;20.90;95.10
1468;DHT22;727;48.892;9.544;2023-05-08T14:39:13;20.90;94.60
1468;DHT22;727;48.892;9.544;2023-05-08T14:41:41;21.00;94.30
1468;DHT22;727;48.892;9.544;2023-05-08T14:44:07;20.70;94.60
1468;DHT22;727;48.892;9.544;2023-05-08T14:46:34;20.80;94.70
1468;DHT22;727;48.892;9.544;2023-05-08T14:49:01;20.90;94.80
1468;DHT22;727;48.892;9.544;2023-05-08T14:51:28;20.80;94.80
1468;DHT22;727;48.892;9.544;2023-05-08T14:53:56;20.90;95.10
1468;DHT22;727;48.892;9.544;2023-05-08T14:56:22;20.70;94.90
1468;DHT22;727;48.892;9.544;2023-05-08T14:58:51;20.70;95.30
1468;DHT22;727;48.892;9.544;2023-05-08T15:01:19;20.60;95.20
1468;DHT22;727;48.892;9.544;2023-05-08T15:03:46;20.80;94.90
1468;DHT22;727;48.892;9.544;2023-05-08T15:06:19;20.70;95.00
1468;DHT22;727;48.892;9.544;2023-05-08T15:08:46;20.60;95.20
1468;DHT22;727;48.892;9.544;2023-05-08T15:11:13;20.40;95.30
1468;DHT22;727;48.892;9.544;2023-05-08T15:13:40;20.40;95.30
1468;DHT22;727;48.892;9.544;2023-05-08T15:16:09;20.50;95.40
1468;DHT22;727;48.892;9.544;2023-05-08T15:18:35;20.60;95.40
1468;DHT22;727;48.892;9.544;2023-05-08T15:21:03;20.70;95.40
1468;DHT22;727;48.892;9.544;2023-05-08T15:23:30;20.80;94.90
1468;DHT22;727;48.892;9.544;2023-05-08T15:25:57;20.80;94.70
1468;DHT22;727;48.892;9.544;2023-05-08T15:28:25;21.00;95.00
1468;DHT22;727;48.892;9.544;2023-05-08T15:30:52;21.00;94.50
1468;DHT22;727;48.892;9.544;2023-05-08T15:33:20;20.90;94.70
1468;DHT22;727;48.892;9.544;2023-05-08T15:35:47;20.90;94.80
1468;DHT22;727;48.892;9.544;2023-05-08T15:38:13;20.80;95.00
1468;DHT22;727;48.892;9.544;2023-05-08T15:40:40;20.80;95.20
1468;DHT22;727;48.892;9.544;2023-05-08T15:43:07;20.70;94.70
1468;DHT22;727;48.892;9.544;2023-05-08T15:45:35;20.60;95.20
1468;DHT22;727;48.892;9.544;2023-05-08T15:48:01;20.50;94.90
1468;DHT22;727;48.892;9.544;2023-05-08T15:50:29;20.50;95.40
1468;DHT22;727;48.892;9.544;2023-05-08T15:52:56;20.50;95.20
1468;DHT22;727;48.892;9.544;2023-05-08T15:55:23;20.40;95.40
1468;DHT22;727;48.892;9.544;2023-05-08T15:57:50;20.20;95.60
1468;DHT22;727;48.892;9.544;2023-05-08T16:00:17;20.20;95.50
1468;DHT22;727;48.892;9.544;2023-05-08T16:02:45;20.20;96.10
1468;DHT22;727;48.892;9.544;2023-05-08T16:05:20;20.20;95.80
1468;DHT22;727;48.892;9.544;2023-05-08T16:07:49;20.10;95.80
1468;DHT22;727;48.892;9.544;2023-05-08T16:10:16;20.10;96.10
1468;DHT22;727;48.892;9.544;2023-05-08T16:12:43;20.10;96.70
1468;DHT22;727;48.892;9.544;2023-05-08T16:15:10;20.10;96.30
1468;DHT22;727;48.892;9.544;2023-05-08T16:17:50;20.00;95.80
1468;DHT22;727;48.892;9.544;2023-05-08T16:20:17;20.00;95.70
1468;DHT22;727;48.892;9.544;2023-05-08T16:22:44;19.90;95.90
1468;DHT22;727;48.892;9.544;2023-05-08T16:25:12;19.90;96.20
1468;DHT22;727;48.892;9.544;2023-05-08T16:27:39;19.90;96.20
1468;DHT22;727;48.892;9.544;2023-05-08T16:30:06;19.90;96.40
1468;DHT22;727;48.892;9.544;2023-05-08T16:32:34;19.80;96.30
1468;DHT22;727;48.892;9.544;2023-05-08T16:35:00;19.80;96.50
1468;DHT22;727;48.892;9.544;2023-05-08T16:37:27;19.60;96.60